createdAt,value
2022-12-11T00:01:20.352Z,36.65
2022-12-11T00:05:21.906Z,34.22
2022-12-11T00:09:23.618Z,39.78
2022-12-11T00:13:25.252Z,40.42
2022-12-11T00:17:26.809Z,39.15
2022-12-11T00:21:28.359Z,31.58
2022-12-11T00:25:29.943Z,37.15
2022-12-11T00:29:31.592Z,36.60
2022-12-11T00:33:33.193Z,31.80
2022-12-11T00:37:34.829Z,37.65
2022-12-11T00:41:36.433Z,30.42
2022-12-11T00:45:39.222Z,34.15
2022-12-11T00:49:45.113Z,33.22
2022-12-11T00:53:49.790Z,32.22
2022-12-11T00:57:51.928Z,32.72
2022-12-11T01:01:53.467Z,30.90
2022-12-11T01:05:55.552Z,33.10
2022-12-11T01:10:15.645Z,30.52
2022-12-11T01:14:17.197Z,34.72
2022-12-11T01:18:18.824Z,34.00
2022-12-11T01:22:20.609Z,36.35
2022-12-11T01:26:22.566Z,31.87
2022-12-11T01:30:25.782Z,36.67
2022-12-11T01:34:30.273Z,31.65
2022-12-11T01:38:31.797Z,30.83
2022-12-11T01:42:34.355Z,37.42
2022-12-11T01:46:37.035Z,35.95
2022-12-11T01:50:44.284Z,37.40
2022-12-11T01:54:46.491Z,33.17
2022-12-11T01:58:53.871Z,37.75
2022-12-11T02:02:55.478Z,35.05
2022-12-11T02:06:57.279Z,35.83
2022-12-11T02:11:14.595Z,33.55
2022-12-11T02:15:22.881Z,37.20
2022-12-11T02:19:39.697Z,36.50
2022-12-11T02:24:00.413Z,37.40
2022-12-11T02:28:20.632Z,35.65
2022-12-11T02:32:59.018Z,32.13
2022-12-11T02:37:09.657Z,32.75
2022-12-11T02:41:12.116Z,35.13
2022-12-11T02:45:15.182Z,35.63
2022-12-11T02:49:21.243Z,39.08
2022-12-11T02:53:26.182Z,34.47
2022-12-11T02:57:34.350Z,37.40
2022-12-11T03:01:36.104Z,32.25
2022-12-11T03:05:38.531Z,35.35
2022-12-11T03:09:42.116Z,37.47
2022-12-11T03:13:44.055Z,35.53
2022-12-11T03:18:08.046Z,28.87
2022-12-11T03:22:16.477Z,40.58
2022-12-11T03:26:20.212Z,38.40
2022-12-11T03:30:24.034Z,31.65
2022-12-11T03:34:37.176Z,40.70
2022-12-11T03:38:49.234Z,35.85
2022-12-11T03:42:53.594Z,38.20
2022-12-11T03:46:57.862Z,43.28
2022-12-11T03:51:03.798Z,36.65
2022-12-11T03:55:06.820Z,38.33
2022-12-11T03:59:08.909Z,34.22
2022-12-11T04:03:14.064Z,44.03
2022-12-11T04:07:15.894Z,39.90
2022-12-11T04:11:35.672Z,43.22
2022-12-11T04:15:38.405Z,41.00
2022-12-11T04:24:15.544Z,42.33
2022-12-11T04:28:17.151Z,38.67
2022-12-11T04:32:18.696Z,41.28
2022-12-11T04:36:20.226Z,37.15
2022-12-11T04:40:22.374Z,40.60
2022-12-11T04:44:23.980Z,40.42
2022-12-11T04:48:25.532Z,42.75
2022-12-11T04:52:27.149Z,39.08
2022-12-11T04:56:28.782Z,42.78
2022-12-11T05:00:30.734Z,40.30
2022-12-11T05:04:34.298Z,33.77
2022-12-11T05:08:37.980Z,35.38
2022-12-11T05:12:39.710Z,37.40
2022-12-11T05:16:41.275Z,33.58
2022-12-11T05:20:42.840Z,39.92
2022-12-11T05:24:45.769Z,43.97
2022-12-11T05:28:53.296Z,43.47
2022-12-11T05:32:54.957Z,37.95
2022-12-11T05:36:56.554Z,41.08
2022-12-11T05:41:03.669Z,36.85
2022-12-11T05:45:05.691Z,37.75
2022-12-11T05:49:07.962Z,28.93
2022-12-11T05:53:09.535Z,38.70
2022-12-11T05:57:11.137Z,44.95
2022-12-11T06:01:15.829Z,42.78
2022-12-11T06:05:17.579Z,40.58
2022-12-11T06:09:19.186Z,42.53
2022-12-11T06:13:21.303Z,39.78
2022-12-11T06:17:23.490Z,44.80
2022-12-11T06:21:28.176Z,42.92
2022-12-11T06:25:30.244Z,41.90
2022-12-11T06:29:31.816Z,40.73
2022-12-11T06:33:33.913Z,34.35
2022-12-11T06:37:37.072Z,42.43
2022-12-11T06:41:38.882Z,36.03
2022-12-11T06:45:40.539Z,32.30
2022-12-11T06:49:42.165Z,35.65
2022-12-11T06:53:44.362Z,37.65
2022-12-11T06:57:45.909Z,21.15
2022-12-11T07:01:47.516Z,41.08
2022-12-11T07:05:49.203Z,38.55
2022-12-11T07:09:51.003Z,36.78
2022-12-11T07:13:52.554Z,41.67
2022-12-11T07:17:54.187Z,36.13
2022-12-11T07:21:55.764Z,39.60
2022-12-11T07:25:57.841Z,38.50
2022-12-11T07:29:59.460Z,37.67
2022-12-11T07:34:04.054Z,45.03
2022-12-11T07:38:05.639Z,40.25
2022-12-11T07:42:07.265Z,41.13
2022-12-11T07:46:15.559Z,38.70
2022-12-11T07:50:17.227Z,45.63
2022-12-11T07:54:18.768Z,46.35
2022-12-11T07:58:20.638Z,45.80
2022-12-11T08:02:22.347Z,49.00
2022-12-11T08:06:33.167Z,46.58
2022-12-11T08:10:34.757Z,46.97
2022-12-11T08:14:36.409Z,48.38
2022-12-11T08:18:38.023Z,50.10
2022-12-11T08:22:39.662Z,47.25
2022-12-11T08:26:41.240Z,44.35
2022-12-11T08:30:42.887Z,39.47
2022-12-11T08:34:44.975Z,46.70
2022-12-11T08:38:47.008Z,43.77
2022-12-11T08:42:48.626Z,49.53
2022-12-11T08:46:50.913Z,30.40
2022-12-11T08:50:52.667Z,44.22
2022-12-11T08:54:54.345Z,42.70
2022-12-11T08:58:56.075Z,40.50
2022-12-11T09:02:57.734Z,41.33
2022-12-11T09:06:59.382Z,45.80
2022-12-11T09:11:06.884Z,40.25
2022-12-11T09:15:11.768Z,42.75
2022-12-11T09:19:14.889Z,40.00
2022-12-11T09:23:16.662Z,40.88
2022-12-11T09:27:19.906Z,45.38
2022-12-11T09:31:32.716Z,49.90
2022-12-11T09:35:34.328Z,46.78
2022-12-11T09:39:35.891Z,47.20
2022-12-11T09:43:52.824Z,45.20
2022-12-11T09:47:56.591Z,42.75
2022-12-11T09:52:19.701Z,46.63
2022-12-11T10:00:44.495Z,42.15
2022-12-11T10:05:02.255Z,48.75
2022-12-11T10:09:30.943Z,51.25
2022-12-11T10:14:07.759Z,49.63
2022-12-11T10:18:16.113Z,52.03
2022-12-11T10:22:24.561Z,47.58
2022-12-11T10:26:29.343Z,49.33
2022-12-11T10:30:38.021Z,50.78
2022-12-11T10:34:44.127Z,52.13
2022-12-11T10:38:46.905Z,46.33
2022-12-11T10:42:53.284Z,51.15
2022-12-11T10:47:21.299Z,51.33
2022-12-11T10:51:26.714Z,45.97
2022-12-11T10:55:34.298Z,50.83
2022-12-11T10:59:40.734Z,51.50
2022-12-11T11:04:14.209Z,46.33
2022-12-11T11:08:22.631Z,55.53
2022-12-11T11:12:27.580Z,47.83
2022-12-11T11:16:29.436Z,42.05
2022-12-11T11:20:34.163Z,44.13
2022-12-11T11:24:41.938Z,48.75
2022-12-11T11:28:48.881Z,48.67
2022-12-11T11:32:54.408Z,53.17
2022-12-11T11:36:57.860Z,45.83
2022-12-11T11:41:24.325Z,52.90
2022-12-11T11:45:39.798Z,54.22
2022-12-11T11:49:52.946Z,47.65
2022-12-11T11:53:59.338Z,44.92
2022-12-11T11:58:07.504Z,43.03
2022-12-11T12:02:18.173Z,44.63
2022-12-11T12:06:25.999Z,44.80
2022-12-11T12:10:38.909Z,44.17
2022-12-11T12:15:18.821Z,45.72
2022-12-11T12:19:23.346Z,43.67
2022-12-11T12:23:41.267Z,46.50
2022-12-11T12:27:54.929Z,44.15
2022-12-11T12:32:02.490Z,39.03
2022-12-11T12:36:23.069Z,45.67
2022-12-11T12:40:44.771Z,46.97
2022-12-11T12:45:08.943Z,46.20
2022-12-11T12:49:15.663Z,51.08
2022-12-11T12:53:28.682Z,45.53
2022-12-11T13:01:32.654Z,44.72
2022-12-11T13:05:34.696Z,50.95
2022-12-11T13:09:36.267Z,31.60
2022-12-11T13:13:42.495Z,46.25
2022-12-11T13:17:44.049Z,41.80
2022-12-11T13:21:56.760Z,46.60
2022-12-11T13:26:02.051Z,46.67
2022-12-11T13:30:15.917Z,45.08
2022-12-11T13:34:22.780Z,43.88
2022-12-11T13:38:25.617Z,40.75
2022-12-11T13:46:37.772Z,40.65
2022-12-11T13:50:43.799Z,46.35
2022-12-11T13:54:56.381Z,44.13
2022-12-11T13:58:58.179Z,44.78
2022-12-11T14:03:05.245Z,39.45
2022-12-11T14:07:09.411Z,41.08
2022-12-11T14:11:21.769Z,39.75
2022-12-11T14:15:24.139Z,38.50
2022-12-11T14:19:26.026Z,43.05
2022-12-11T14:23:31.255Z,47.53
2022-12-11T14:27:33.278Z,39.88
2022-12-11T14:31:40.559Z,46.70
2022-12-11T14:35:43.630Z,39.58
2022-12-11T14:39:53.090Z,43.78
2022-12-11T14:43:59.103Z,42.35
2022-12-11T14:48:03.297Z,40.65
2022-12-11T14:52:05.300Z,41.47
2022-12-11T14:56:09.557Z,42.47
2022-12-11T15:00:29.784Z,46.15
2022-12-11T15:04:33.468Z,53.17
2022-12-11T15:08:37.016Z,52.13
2022-12-11T15:12:45.164Z,46.60
2022-12-11T15:16:49.335Z,45.03
2022-12-11T15:20:54.653Z,43.22
2022-12-11T15:24:56.288Z,47.13
2022-12-11T15:29:02.858Z,43.38
2022-12-11T15:33:10.363Z,48.67
2022-12-11T15:37:32.697Z,47.55
2022-12-11T15:41:34.788Z,47.43
2022-12-11T15:45:36.340Z,50.15
2022-12-11T15:49:37.930Z,52.35
2022-12-11T15:53:39.502Z,50.78
2022-12-11T15:58:02.702Z,55.92
2022-12-11T16:02:04.344Z,46.63
2022-12-11T16:06:06.145Z,51.08
2022-12-11T16:10:13.357Z,52.13
2022-12-11T16:14:14.898Z,54.78
2022-12-11T16:18:20.904Z,48.28
2022-12-11T16:22:22.582Z,56.00
2022-12-11T16:26:24.263Z,46.92
2022-12-11T16:30:27.728Z,41.88
2022-12-11T16:34:29.548Z,46.15
2022-12-11T16:38:31.190Z,42.45
2022-12-11T16:42:33.206Z,49.42
2022-12-11T16:46:34.881Z,41.33
2022-12-11T16:50:39.861Z,50.38
2022-12-11T16:54:41.434Z,48.90
2022-12-11T16:58:43.165Z,50.10
2022-12-11T17:02:44.821Z,52.67
2022-12-11T17:06:46.522Z,50.13
2022-12-11T17:10:48.235Z,51.88
2022-12-11T17:14:50.650Z,53.20
2022-12-11T17:18:53.368Z,57.03
2022-12-11T17:22:54.934Z,46.63
2022-12-11T17:26:56.820Z,53.60
2022-12-11T17:30:58.745Z,47.88
2022-12-11T17:35:00.370Z,49.83
2022-12-11T17:39:02.001Z,51.58
2022-12-11T17:43:06.411Z,48.85
2022-12-11T17:47:11.263Z,50.67
2022-12-11T17:51:20.985Z,44.88
2022-12-11T17:55:22.687Z,49.70
2022-12-11T17:59:24.889Z,44.00
2022-12-11T18:03:28.290Z,46.47
2022-12-11T18:07:30.032Z,53.70
2022-12-11T18:11:33.018Z,46.38
2022-12-11T18:15:36.440Z,51.35
2022-12-11T18:19:42.791Z,50.78
2022-12-11T18:23:48.226Z,43.30
2022-12-11T18:27:49.830Z,51.42
2022-12-11T18:31:51.535Z,47.15
2022-12-11T18:35:53.220Z,43.08
2022-12-11T18:39:54.986Z,42.78
2022-12-11T18:44:01.995Z,34.65
2022-12-11T18:48:07.813Z,43.38
2022-12-11T18:52:09.448Z,36.10
2022-12-11T18:56:16.602Z,40.53
2022-12-11T19:00:18.840Z,36.72
2022-12-11T19:04:20.988Z,46.45
2022-12-11T19:08:23.735Z,44.57
2022-12-11T19:16:30.242Z,34.95
2022-12-11T19:20:58.014Z,36.28
2022-12-11T19:24:58.321Z,40.88
2022-12-11T19:29:00.431Z,41.08
2022-12-11T19:33:03.573Z,26.45
2022-12-11T19:37:05.467Z,33.67
2022-12-11T19:41:17.530Z,37.53
2022-12-11T19:45:19.289Z,36.13
2022-12-11T19:49:21.548Z,36.73
2022-12-11T19:53:23.241Z,37.38
2022-12-11T19:57:24.874Z,31.10
2022-12-11T20:01:30.418Z,35.20
2022-12-11T20:05:32.137Z,33.25
2022-12-11T20:09:33.777Z,33.10
2022-12-11T20:13:36.695Z,34.65
2022-12-11T20:17:43.436Z,30.02
2022-12-11T20:21:45.014Z,28.70
2022-12-11T20:25:46.665Z,32.45
2022-12-11T20:29:48.289Z,32.35
2022-12-11T20:33:52.499Z,34.25
2022-12-11T20:37:54.110Z,25.40
2022-12-11T20:41:55.885Z,28.00
2022-12-11T20:45:57.625Z,28.48
2022-12-11T20:49:59.411Z,29.67
2022-12-11T20:54:01.440Z,25.75
2022-12-11T20:58:03.001Z,24.90
2022-12-11T21:02:05.596Z,29.38
2022-12-11T21:06:07.418Z,28.77
2022-12-11T21:10:09.723Z,30.27
2022-12-11T21:14:11.530Z,28.30
2022-12-11T21:18:13.258Z,39.45
2022-12-11T21:22:14.828Z,38.17
2022-12-11T21:26:17.358Z,37.30
2022-12-11T21:30:19.803Z,33.42
2022-12-11T21:38:28.372Z,31.98
2022-12-11T21:42:30.296Z,34.35
2022-12-11T21:46:32.623Z,42.97
2022-12-11T21:50:35.506Z,39.20
2022-12-11T21:54:37.310Z,37.25
2022-12-11T21:58:41.181Z,35.90
2022-12-11T22:02:43.005Z,37.63
2022-12-11T22:06:47.098Z,35.30
2022-12-11T22:10:49.998Z,35.58
2022-12-11T22:14:52.037Z,32.80
2022-12-11T22:18:53.698Z,33.45
2022-12-11T22:22:55.361Z,34.72
2022-12-11T22:26:57.266Z,34.22
2022-12-11T22:30:59.366Z,32.58
2022-12-11T22:35:01.703Z,35.47
2022-12-11T22:39:03.610Z,32.58
2022-12-11T22:43:05.164Z,32.63
2022-12-11T22:47:06.791Z,40.20
2022-12-11T22:51:08.481Z,34.03
2022-12-11T22:55:10.572Z,32.63
2022-12-11T22:59:12.645Z,40.83
2022-12-11T23:03:14.570Z,34.60
2022-12-11T23:07:16.282Z,31.77
2022-12-11T23:11:27.479Z,33.20
2022-12-11T23:15:29.089Z,35.15
2022-12-11T23:19:30.769Z,34.90
2022-12-11T23:23:32.614Z,37.75
2022-12-11T23:27:34.405Z,29.88
2022-12-11T23:31:36.451Z,28.93
2022-12-11T23:35:38.172Z,38.90
2022-12-11T23:39:39.874Z,35.53
2022-12-11T23:43:42.033Z,31.10
2022-12-11T23:47:43.616Z,34.90
2022-12-11T23:51:45.201Z,36.15
2022-12-11T23:55:46.902Z,35.85
2022-12-11T23:59:48.571Z,34.65
